createdAt,value
2023-02-24T00:00:40.910Z,6.21
2023-02-24T00:03:11.692Z,6.20
2023-02-24T00:05:44.476Z,6.21
2023-02-24T00:08:14.095Z,6.22
2023-02-24T00:10:45.070Z,6.22
2023-02-24T00:13:18.628Z,6.20
2023-02-24T00:15:56.927Z,6.18
2023-02-24T00:18:26.717Z,6.20
2023-02-24T00:21:10.143Z,6.20
2023-02-24T00:23:54.830Z,6.21
2023-02-24T00:26:52.315Z,6.18
2023-02-24T00:29:38.897Z,6.18
2023-02-24T00:32:27.367Z,6.17
2023-02-24T00:34:56.816Z,6.17
2023-02-24T00:37:24.830Z,6.15
2023-02-24T00:39:57.489Z,6.15
2023-02-24T00:42:27.676Z,6.11
2023-02-24T00:44:56.442Z,5.97
2023-02-24T00:47:29.350Z,5.76
2023-02-24T00:50:00.220Z,5.55
2023-02-24T00:52:29.761Z,5.47
2023-02-24T00:54:59.191Z,5.38
2023-02-24T00:57:29.138Z,5.35
2023-02-24T00:59:58.846Z,5.24
2023-02-24T01:02:28.789Z,5.12
2023-02-24T01:05:01.492Z,5.07
2023-02-24T01:07:29.557Z,4.98
2023-02-24T01:09:57.891Z,4.91
2023-02-24T01:12:52.458Z,4.84
2023-02-24T01:15:26.033Z,4.78
2023-02-24T01:17:54.244Z,4.70
2023-02-24T01:20:23.861Z,4.66
2023-02-24T01:22:54.611Z,4.59
2023-02-24T01:25:23.609Z,4.59
2023-02-24T01:27:54.054Z,4.54
2023-02-24T01:30:25.448Z,4.52
2023-02-24T01:32:55.945Z,4.46
2023-02-24T01:35:25.539Z,4.39
2023-02-24T01:37:54.177Z,4.30
2023-02-24T01:40:22.683Z,4.29
2023-02-24T01:42:51.698Z,4.19
2023-02-24T01:45:28.789Z,4.12
2023-02-24T01:48:00.131Z,4.08
2023-02-24T01:50:29.227Z,4.09
2023-02-24T01:53:00.385Z,4.08
2023-02-24T01:55:32.248Z,4.02
2023-02-24T01:58:02.528Z,4.03
2023-02-24T02:00:37.949Z,4.01
2023-02-24T02:03:11.328Z,3.98
2023-02-24T02:05:43.433Z,4.01
2023-02-24T02:08:14.505Z,4.01
2023-02-24T02:10:44.692Z,3.98
2023-02-24T02:13:16.434Z,3.99
2023-02-24T02:15:57.042Z,3.95
2023-02-24T02:18:33.349Z,3.89
2023-02-24T02:21:28.057Z,3.88
2023-02-24T02:24:01.572Z,3.85
2023-02-24T02:26:47.661Z,3.82
2023-02-24T02:29:31.897Z,3.77
2023-02-24T02:32:31.580Z,3.74
2023-02-24T02:35:03.841Z,3.70
2023-02-24T02:37:39.101Z,3.68
2023-02-24T02:40:20.735Z,3.64
2023-02-24T02:42:55.488Z,3.63
2023-02-24T02:45:27.839Z,3.59
2023-02-24T02:48:01.590Z,3.56
2023-02-24T02:50:41.208Z,3.53
2023-02-24T02:53:13.862Z,3.50
2023-02-24T02:55:45.847Z,3.50
2023-02-24T02:58:16.910Z,3.43
2023-02-24T03:00:54.549Z,3.41
2023-02-24T03:03:26.999Z,3.36
2023-02-24T03:05:58.638Z,3.33
2023-02-24T03:08:30.611Z,3.33
2023-02-24T03:11:00.469Z,3.31
2023-02-24T03:13:33.154Z,3.29
2023-02-24T03:16:03.579Z,3.23
2023-02-24T03:18:34.168Z,3.23
2023-02-24T03:21:07.971Z,3.24
2023-02-24T03:23:40.059Z,3.20
2023-02-24T03:26:17.214Z,3.23
2023-02-24T03:28:54.246Z,3.22
2023-02-24T03:31:27.656Z,3.23
2023-02-24T03:34:04.546Z,3.23
2023-02-24T03:36:34.913Z,3.26
2023-02-24T03:39:06.027Z,3.23
2023-02-24T03:41:38.636Z,3.23
2023-02-24T03:44:14.369Z,3.22
2023-02-24T03:46:43.246Z,3.19
2023-02-24T03:49:16.410Z,3.18
2023-02-24T03:51:57.018Z,3.12
2023-02-24T03:54:37.634Z,3.13
2023-02-24T03:57:16.216Z,3.13
2023-02-24T03:59:53.376Z,3.19
2023-02-24T04:02:25.964Z,3.15
2023-02-24T04:04:58.430Z,3.15
2023-02-24T04:07:37.218Z,3.15
2023-02-24T04:10:09.919Z,3.10
2023-02-24T04:12:47.138Z,3.13
2023-02-24T04:15:20.637Z,3.13
2023-02-24T04:17:50.850Z,3.09
2023-02-24T04:20:21.058Z,3.10
2023-02-24T04:22:54.702Z,3.12
2023-02-24T04:25:25.246Z,3.09
2023-02-24T04:27:56.082Z,3.10
2023-02-24T04:30:27.613Z,3.08
2023-02-24T04:32:59.465Z,3.06
2023-02-24T04:35:31.129Z,3.02
2023-02-24T04:38:01.101Z,3.02
2023-02-24T04:40:29.617Z,3.01
2023-02-24T04:42:58.156Z,3.01
2023-02-24T04:45:28.765Z,3.02
2023-02-24T04:48:01.332Z,3.01
2023-02-24T04:50:33.378Z,3.01
2023-02-24T04:53:07.042Z,3.01
2023-02-24T04:55:40.080Z,2.99
2023-02-24T04:58:08.748Z,2.99
2023-02-24T05:00:37.249Z,2.98
2023-02-24T05:03:06.567Z,2.98
2023-02-24T05:05:37.789Z,2.95
2023-02-24T05:08:10.404Z,2.99
2023-02-24T05:10:39.931Z,2.96
2023-02-24T05:13:10.244Z,2.95
2023-02-24T05:15:42.172Z,2.95
2023-02-24T05:18:14.088Z,2.95
2023-02-24T05:21:02.147Z,2.92
2023-02-24T05:23:35.362Z,2.89
2023-02-24T05:26:08.564Z,2.91
2023-02-24T05:28:38.476Z,2.92
2023-02-24T05:31:08.512Z,2.88
2023-02-24T05:33:38.536Z,2.88
2023-02-24T05:36:12.653Z,2.89
2023-02-24T05:38:44.115Z,2.88
2023-02-24T05:41:17.160Z,2.89
2023-02-24T05:43:48.285Z,2.91
2023-02-24T05:46:19.464Z,2.88
2023-02-24T05:48:51.478Z,2.87
2023-02-24T05:51:20.089Z,2.91
2023-02-24T05:53:55.671Z,2.87
2023-02-24T05:56:24.873Z,2.89
2023-02-24T05:59:02.217Z,2.89
2023-02-24T06:01:32.950Z,2.87
2023-02-24T06:04:05.830Z,2.93
2023-02-24T06:06:36.504Z,3.03
2023-02-24T06:09:10.896Z,3.09
2023-02-24T06:11:40.623Z,3.16
2023-02-24T06:14:09.944Z,3.23
2023-02-24T06:16:40.394Z,3.31
2023-02-24T06:19:09.705Z,3.51
2023-02-24T06:21:41.366Z,3.73
2023-02-24T06:24:14.824Z,3.81
2023-02-24T06:26:44.305Z,3.84
2023-02-24T06:29:15.272Z,3.80
2023-02-24T06:31:44.445Z,3.71
2023-02-24T06:34:14.175Z,3.73
2023-02-24T06:36:44.031Z,3.77
2023-02-24T06:39:15.031Z,3.88
2023-02-24T06:41:45.521Z,3.88
2023-02-24T06:44:15.155Z,3.84
2023-02-24T06:46:43.442Z,3.77
2023-02-24T06:49:12.732Z,3.68
2023-02-24T06:51:43.474Z,3.67
2023-02-24T06:54:13.320Z,3.64
2023-02-24T06:56:41.828Z,3.66
2023-02-24T06:59:11.991Z,3.70
2023-02-24T07:01:46.220Z,3.67
2023-02-24T07:04:27.798Z,3.68
2023-02-24T07:07:02.830Z,3.71
2023-02-24T07:09:34.567Z,3.68
2023-02-24T07:12:07.991Z,3.67
2023-02-24T07:14:37.020Z,3.61
2023-02-24T07:17:08.033Z,3.61
2023-02-24T07:19:36.722Z,3.60
2023-02-24T07:22:04.970Z,3.57
2023-02-24T07:24:37.416Z,3.59
2023-02-24T07:27:08.361Z,3.59
2023-02-24T07:29:37.706Z,3.51
2023-02-24T07:32:08.985Z,3.50
2023-02-24T07:34:40.652Z,3.51
2023-02-24T07:37:12.716Z,3.51
2023-02-24T07:39:43.640Z,3.54
2023-02-24T07:42:16.417Z,3.54
2023-02-24T07:44:49.208Z,3.57
2023-02-24T07:47:18.586Z,3.59
2023-02-24T07:49:47.375Z,3.63
2023-02-24T07:52:16.213Z,3.67
2023-02-24T07:54:46.365Z,3.67
2023-02-24T07:57:14.821Z,3.68
2023-02-24T07:59:47.023Z,3.68
2023-02-24T08:02:20.098Z,3.71
2023-02-24T08:05:12.442Z,3.70
2023-02-24T08:07:42.828Z,3.64
2023-02-24T08:10:24.913Z,3.63
2023-02-24T08:12:57.203Z,3.64
2023-02-24T08:15:34.561Z,3.60
2023-02-24T08:18:03.238Z,3.64
2023-02-24T08:20:36.407Z,3.63
2023-02-24T08:23:08.846Z,3.66
2023-02-24T08:25:38.518Z,3.66
2023-02-24T08:28:12.073Z,3.70
2023-02-24T08:30:46.427Z,3.75
2023-02-24T08:33:23.492Z,3.82
2023-02-24T08:36:01.960Z,3.91
2023-02-24T08:38:52.417Z,4.06
2023-02-24T08:41:38.571Z,4.20
2023-02-24T08:44:10.802Z,4.29
2023-02-24T08:46:40.420Z,4.35
2023-02-24T08:49:11.008Z,4.43
2023-02-24T08:51:44.005Z,4.47
2023-02-24T08:54:17.402Z,4.53
2023-02-24T08:56:55.819Z,4.57
2023-02-24T08:59:39.370Z,4.66
2023-02-24T09:02:24.464Z,4.78
2023-02-24T09:04:57.873Z,4.85
2023-02-24T09:07:28.388Z,4.91
2023-02-24T09:09:59.054Z,4.83
2023-02-24T09:12:30.988Z,4.81
2023-02-24T09:15:05.312Z,4.84
2023-02-24T09:17:50.134Z,4.83
2023-02-24T09:20:49.253Z,4.84
2023-02-24T09:23:21.466Z,4.81
2023-02-24T09:25:55.360Z,4.83
2023-02-24T09:28:27.797Z,4.81
2023-02-24T09:30:58.570Z,4.78
2023-02-24T09:33:28.464Z,4.77
2023-02-24T09:36:09.934Z,4.80
2023-02-24T09:39:08.423Z,4.84
2023-02-24T09:42:04.006Z,4.87
2023-02-24T09:44:36.643Z,4.85
2023-02-24T09:47:14.042Z,5.03
2023-02-24T09:49:56.341Z,5.25
2023-02-24T09:52:39.638Z,5.40
2023-02-24T09:55:25.080Z,5.40
2023-02-24T09:58:20.448Z,5.42
2023-02-24T10:00:55.857Z,5.45
2023-02-24T10:03:42.700Z,5.39
2023-02-24T10:06:35.388Z,5.38
2023-02-24T10:09:13.418Z,5.43
2023-02-24T10:11:53.642Z,5.52
2023-02-24T10:14:29.403Z,5.55
2023-02-24T10:17:22.769Z,5.60
2023-02-24T10:19:56.626Z,5.60
2023-02-24T10:22:34.972Z,5.59
2023-02-24T10:25:21.234Z,5.56
2023-02-24T10:28:01.360Z,5.55
2023-02-24T10:30:41.053Z,5.43
2023-02-24T10:33:25.483Z,5.35
2023-02-24T10:36:10.253Z,5.32
2023-02-24T10:38:45.634Z,5.22
2023-02-24T10:41:18.596Z,5.19
2023-02-24T10:43:58.101Z,5.09
2023-02-24T10:46:41.650Z,4.94
2023-02-24T10:49:16.636Z,4.78
2023-02-24T10:51:54.464Z,4.67
2023-02-24T10:54:45.767Z,4.49
2023-02-24T10:57:23.177Z,4.29
2023-02-24T11:00:20.947Z,4.13
2023-02-24T11:03:10.540Z,4.02
2023-02-24T11:06:08.446Z,3.95
2023-02-24T11:08:44.846Z,3.89
2023-02-24T11:11:25.606Z,3.81
2023-02-24T11:14:13.009Z,3.71
2023-02-24T11:17:05.358Z,3.59
2023-02-24T11:19:38.122Z,3.43
2023-02-24T11:22:09.102Z,3.37
2023-02-24T11:24:40.822Z,3.27
2023-02-24T11:27:11.579Z,3.22
2023-02-24T11:29:50.441Z,3.15
2023-02-24T11:32:32.598Z,3.05
2023-02-24T11:35:05.772Z,2.96
2023-02-24T11:37:40.666Z,2.89
2023-02-24T11:40:18.936Z,2.91
2023-02-24T11:42:51.391Z,2.91
2023-02-24T11:45:29.705Z,2.78
2023-02-24T11:48:00.999Z,2.68
2023-02-24T11:50:36.413Z,2.64
2023-02-24T11:53:11.149Z,2.66
2023-02-24T11:55:57.004Z,2.64
2023-02-24T11:58:33.316Z,2.60
2023-02-24T12:01:08.077Z,2.55
2023-02-24T12:03:39.160Z,2.54
2023-02-24T12:06:17.040Z,2.52
2023-02-24T12:08:52.830Z,2.45
2023-02-24T12:11:28.980Z,2.47
2023-02-24T12:14:04.939Z,2.41
2023-02-24T12:16:36.799Z,2.44
2023-02-24T12:19:12.036Z,2.43
2023-02-24T12:21:43.814Z,2.38
2023-02-24T12:24:16.893Z,2.40
2023-02-24T12:26:55.778Z,2.45
2023-02-24T12:29:50.356Z,2.47
2023-02-24T12:32:34.842Z,2.45
2023-02-24T12:35:08.546Z,2.37
2023-02-24T12:37:48.492Z,2.43
2023-02-24T12:40:28.979Z,2.44
2023-02-24T12:43:05.024Z,2.37
2023-02-24T12:45:44.519Z,2.38
2023-02-24T12:48:35.941Z,2.40
2023-02-24T12:51:08.112Z,2.37
2023-02-24T12:53:38.341Z,2.33
2023-02-24T12:56:14.626Z,2.27
2023-02-24T12:58:46.593Z,2.27
2023-02-24T13:01:21.797Z,2.22
2023-02-24T13:03:58.987Z,2.20
2023-02-24T13:06:39.242Z,2.19
2023-02-24T13:09:15.638Z,2.20
2023-02-24T13:11:50.533Z,2.12
2023-02-24T13:14:23.855Z,2.09
2023-02-24T13:16:52.125Z,2.14
2023-02-24T13:19:23.842Z,2.14
2023-02-24T13:22:03.025Z,2.26
2023-02-24T13:24:31.097Z,2.26
2023-02-24T13:27:08.312Z,2.27
2023-02-24T13:29:47.604Z,2.31
2023-02-24T13:32:28.903Z,2.29
2023-02-24T13:34:58.427Z,2.37
2023-02-24T13:37:34.754Z,2.44
2023-02-24T13:40:19.493Z,2.48
2023-02-24T13:43:02.099Z,2.43
2023-02-24T13:45:32.737Z,2.43
2023-02-24T13:48:23.742Z,2.43
2023-02-24T13:51:05.889Z,2.40
2023-02-24T13:53:45.218Z,2.38
2023-02-24T13:56:25.642Z,2.38
2023-02-24T13:59:24.163Z,2.36
2023-02-24T14:02:00.543Z,2.37
2023-02-24T14:04:31.768Z,2.37
2023-02-24T14:07:04.313Z,2.34
2023-02-24T14:09:34.823Z,2.34
2023-02-24T14:12:07.247Z,2.31
2023-02-24T14:14:36.158Z,2.29
2023-02-24T14:17:05.897Z,2.31
2023-02-24T14:19:34.495Z,2.34
2023-02-24T14:22:04.606Z,2.34
2023-02-24T14:24:35.320Z,2.36
2023-02-24T14:27:03.412Z,2.33
2023-02-24T14:29:34.076Z,2.33
2023-02-24T14:32:06.117Z,2.36
2023-02-24T14:34:34.836Z,2.40
2023-02-24T14:37:04.367Z,2.41
2023-02-24T14:39:34.253Z,2.41
2023-02-24T14:42:15.914Z,2.40
2023-02-24T14:44:46.691Z,2.36
2023-02-24T14:47:18.878Z,2.37
2023-02-24T14:49:53.951Z,2.34
2023-02-24T14:52:29.527Z,2.36
2023-02-24T14:55:00.964Z,2.31
2023-02-24T14:57:32.137Z,2.33
2023-02-24T15:00:11.043Z,2.29
2023-02-24T15:02:44.080Z,2.31
2023-02-24T15:05:13.418Z,2.30
2023-02-24T15:07:45.795Z,2.27
2023-02-24T15:10:23.466Z,2.23
2023-02-24T15:12:55.639Z,2.20
2023-02-24T15:15:24.661Z,2.17
2023-02-24T15:17:57.198Z,2.13
2023-02-24T15:20:27.951Z,2.14
2023-02-24T15:22:57.230Z,2.10
2023-02-24T15:25:37.035Z,2.12
2023-02-24T15:28:28.221Z,2.10
2023-02-24T15:31:01.302Z,2.06
2023-02-24T15:33:35.910Z,2.03
2023-02-24T15:36:08.767Z,2.02
2023-02-24T15:38:39.321Z,2.03
2023-02-24T15:41:09.484Z,2.03
2023-02-24T15:43:39.423Z,2.05
2023-02-24T15:46:30.399Z,2.05
2023-02-24T15:49:03.350Z,2.05
2023-02-24T15:51:37.042Z,2.07
2023-02-24T15:54:06.773Z,2.10
2023-02-24T15:56:40.585Z,2.10
2023-02-24T15:59:09.640Z,2.13
2023-02-24T16:01:38.182Z,2.14
2023-02-24T16:04:09.813Z,2.13
2023-02-24T16:06:41.727Z,2.17
2023-02-24T16:09:14.080Z,2.20
2023-02-24T16:11:45.001Z,2.20
2023-02-24T16:14:17.908Z,2.24
2023-02-24T16:16:50.061Z,2.22
2023-02-24T16:19:21.323Z,2.23
2023-02-24T16:21:50.226Z,2.23
2023-02-24T16:24:20.570Z,2.24
2023-02-24T16:26:50.292Z,2.29
2023-02-24T16:29:20.034Z,2.26
2023-02-24T16:31:54.379Z,2.26
2023-02-24T16:34:24.167Z,2.27
2023-02-24T16:36:52.769Z,2.27
2023-02-24T16:39:21.911Z,2.29
2023-02-24T16:41:51.455Z,2.30
2023-02-24T16:44:19.822Z,2.31
2023-02-24T16:46:48.375Z,2.34
2023-02-24T16:49:20.394Z,2.36
2023-02-24T16:51:53.127Z,2.36
2023-02-24T16:54:29.993Z,2.38
2023-02-24T16:57:01.473Z,2.37
2023-02-24T16:59:30.759Z,2.37
2023-02-24T17:02:02.302Z,2.37
2023-02-24T17:04:32.279Z,2.37
2023-02-24T17:07:03.524Z,2.40
2023-02-24T17:09:39.392Z,2.41
2023-02-24T17:12:09.844Z,2.43
2023-02-24T17:14:38.896Z,2.43
2023-02-24T17:17:08.318Z,2.44
2023-02-24T17:19:36.986Z,2.47
2023-02-24T17:22:12.037Z,2.47
2023-02-24T17:24:40.453Z,2.47
2023-02-24T17:27:09.814Z,2.48
2023-02-24T17:29:38.931Z,2.51
2023-02-24T17:32:08.708Z,2.50
2023-02-24T17:34:37.308Z,2.52
2023-02-24T17:37:07.528Z,2.54
2023-02-24T17:39:36.123Z,2.50
2023-02-24T17:42:04.828Z,2.50
2023-02-24T17:44:33.875Z,2.51
2023-02-24T17:47:04.670Z,2.52
2023-02-24T17:49:35.011Z,2.52
2023-02-24T17:52:06.259Z,2.52
2023-02-24T17:54:36.568Z,2.52
2023-02-24T17:57:08.318Z,2.54
2023-02-24T17:59:39.173Z,2.55
2023-02-24T18:02:08.796Z,2.55
2023-02-24T18:04:37.161Z,2.57
2023-02-24T18:07:05.549Z,2.58
2023-02-24T18:09:35.558Z,2.60
2023-02-24T18:12:04.891Z,2.61
2023-02-24T18:14:34.913Z,2.64
2023-02-24T18:17:03.472Z,2.66
2023-02-24T18:19:32.481Z,2.66
2023-02-24T18:22:01.096Z,2.70
2023-02-24T18:24:29.297Z,2.71
2023-02-24T18:26:59.222Z,2.74
2023-02-24T18:29:28.118Z,2.77
2023-02-24T18:31:56.722Z,2.78
2023-02-24T18:34:25.811Z,2.81
2023-02-24T18:36:54.180Z,2.82
2023-02-24T18:39:24.207Z,2.85
2023-02-24T18:41:53.705Z,2.88
2023-02-24T18:44:24.958Z,2.87
2023-02-24T18:46:53.617Z,2.89
2023-02-24T18:49:25.115Z,2.89
2023-02-24T18:51:54.156Z,2.91
2023-02-24T18:54:27.616Z,2.91
2023-02-24T18:56:56.717Z,2.91
2023-02-24T18:59:27.260Z,2.92
2023-02-24T19:01:56.917Z,2.96
2023-02-24T19:04:27.758Z,2.99
2023-02-24T19:06:56.345Z,3.03
2023-02-24T19:09:24.866Z,2.99
2023-02-24T19:11:54.513Z,3.03
2023-02-24T19:14:24.094Z,3.06
2023-02-24T19:16:53.676Z,3.06
2023-02-24T19:19:22.860Z,3.09
2023-02-24T19:21:51.561Z,3.12
2023-02-24T19:24:20.433Z,3.13
2023-02-24T19:26:51.251Z,3.18
2023-02-24T19:29:20.529Z,3.20
2023-02-24T19:31:54.048Z,3.19
2023-02-24T19:34:23.871Z,3.18
2023-02-24T19:36:52.160Z,3.19
2023-02-24T19:39:20.415Z,3.20
2023-02-24T19:41:49.771Z,3.18
2023-02-24T19:44:18.386Z,3.19
2023-02-24T19:46:49.659Z,3.19
2023-02-24T19:49:18.971Z,3.20
2023-02-24T19:51:48.613Z,3.19
2023-02-24T19:54:17.228Z,3.19
2023-02-24T19:56:46.423Z,3.19
2023-02-24T19:59:15.122Z,3.18
2023-02-24T20:01:44.115Z,3.20
2023-02-24T20:04:13.357Z,3.20
2023-02-24T20:06:43.876Z,3.22
2023-02-24T20:09:17.515Z,3.23
2023-02-24T20:11:46.180Z,3.23
2023-02-24T20:14:17.292Z,3.23
2023-02-24T20:16:46.772Z,3.30
2023-02-24T20:19:17.302Z,3.30
2023-02-24T20:21:46.077Z,3.40
2023-02-24T20:24:17.185Z,3.43
2023-02-24T20:26:49.862Z,3.40
2023-02-24T20:29:19.954Z,3.40
2023-02-24T20:31:50.599Z,3.37
2023-02-24T20:34:19.119Z,3.37
2023-02-24T20:36:48.719Z,3.39
2023-02-24T20:39:18.463Z,3.39
2023-02-24T20:41:47.824Z,3.37
2023-02-24T20:44:16.345Z,3.37
2023-02-24T20:46:45.758Z,3.39
2023-02-24T20:49:15.018Z,3.37
2023-02-24T20:51:44.225Z,3.37
2023-02-24T20:54:14.844Z,3.39
2023-02-24T20:56:47.770Z,3.39
2023-02-24T20:59:17.733Z,3.37
2023-02-24T21:02:00.521Z,3.37
2023-02-24T21:07:25.252Z,3.39
2023-02-24T21:09:54.982Z,3.37
2023-02-24T21:12:25.009Z,3.34
2023-02-24T21:14:53.366Z,3.36
2023-02-24T21:17:21.666Z,3.34
2023-02-24T21:19:51.086Z,3.34
2023-02-24T21:22:19.672Z,3.31
2023-02-24T21:24:50.603Z,3.33
2023-02-24T21:51:10.457Z,3.47
2023-02-24T21:54:30.436Z,3.49
2023-02-24T22:06:42.606Z,3.46
2023-02-24T22:09:12.169Z,3.49
2023-02-24T22:11:44.034Z,3.50
2023-02-24T22:20:26.721Z,3.53
2023-02-24T22:22:56.618Z,3.53
2023-02-24T22:25:29.842Z,3.53
2023-02-24T22:27:59.409Z,3.53
2023-02-24T22:33:15.715Z,3.53
2023-02-24T22:35:45.343Z,3.54
2023-02-24T22:38:15.274Z,3.53
2023-02-24T22:40:53.956Z,3.54
2023-02-24T22:43:23.668Z,3.53
2023-02-24T22:46:01.794Z,3.53
2023-02-24T22:48:31.526Z,3.51
2023-02-24T22:51:01.583Z,3.54
2023-02-24T22:53:34.681Z,3.53
2023-02-24T22:56:05.849Z,3.53
2023-02-24T22:58:34.717Z,3.53
2023-02-24T23:01:03.194Z,3.50
2023-02-24T23:03:34.537Z,3.51
2023-02-24T23:06:06.601Z,3.51
2023-02-24T23:08:39.119Z,3.57
2023-02-24T23:11:09.522Z,3.57
2023-02-24T23:13:38.533Z,3.57
2023-02-24T23:16:10.337Z,3.56
2023-02-24T23:18:48.465Z,3.54
2023-02-24T23:21:21.451Z,3.51
2023-02-24T23:23:53.698Z,3.54
2023-02-24T23:26:23.970Z,3.54
2023-02-24T23:28:53.998Z,3.56
2023-02-24T23:31:23.921Z,3.56
2023-02-24T23:33:56.758Z,3.59
2023-02-24T23:36:26.300Z,3.57
2023-02-24T23:39:05.213Z,3.57
2023-02-24T23:41:36.630Z,3.57
2023-02-24T23:44:06.160Z,3.59
2023-02-24T23:46:36.252Z,3.61
2023-02-24T23:49:22.972Z,3.57
2023-02-24T23:51:55.276Z,3.54
2023-02-24T23:57:53.315Z,3.51
